Kewanee, IL

11:56 AM CST on December 18, 2014 (GMT -0600)
Quad-City International | Change Station
CLOSE
Current Station
Airport
Location: Moline,
Elevation: 594 ft
Nearby Weather Stations

Elev 594 ft 41.45 °N, 90.51 °W | Updated 4 minutes ago

Overcast
Overcast
27 °F
Feels Like 27 °F
N
0
Wind Variable Wind from North

Today
High -- | Low -- °F
--% Chance of Precip.
Yesterday
High -- | Low -- °F
Precip. -- in
7:20 AM 4:32 PM
Waning Crescent, 13% visible
Pressure 30.31 in
Visibility 9.0 miles
Clouds Overcast 8500 ft
Dew Point 18 °F
Humidity 69%
Rainfall 0.00 in
Snow Depth Not available.
UV 1 out of 12
Pollen .10 out of 12
Air Quality Not available.
Flu Activity Not available.
METAR KMLI 181752Z 00000KT 9SM OVC085 M03/M08 A3028 RMK AO2 SLP264 T10281078 11028 21067 58010

More Conditions Fewer Conditions

Pressure 30.31 in
Visibility 9.0 miles
Clouds Overcast 8500 ft
Dew Point 18 °F
Humidity 69%
Rainfall 0.00 in
Snow Depth Not available.
UV 1 out of 12
Pollen .10 out of 12
Air Quality Not available.
Flu Activity Not available.
METAR KMLI 181752Z 00000KT 9SM OVC085 M03/M08 A3028 RMK AO2 SLP264 T10281078 11028 21067 58010

More Conditions Fewer Conditions

10-Day Weather Forecast

Almanac

Astronomy

Dec. 18, 2014 Rise Set
Actual Time
Civil Twilight
Nautical Twilight
Astronomical Twilight
Moon
Length of Visible Light
Length of Day
Tomorrow will be .
, % of the Moon is Illuminated

Today's Extremes

State Highs State Lows

Community

WunderPhotos

Upload Photos

1,778,969 photos uploaded!

WunderBlogs® & News

Nearby

Air Quality

  Air Quality AQ Index Pollutant
Not available.

Snow Depth

Station Depth Elevation

Earthquake Activity

City Distance Mag. Time & Date
Minimum magnitude displayed is 2.5.

Coastal Water Temperatures

Place Temperature

Nearby Weather Stations